createdAt,value
2022-08-05T00:02:27.497Z,101364.44
2022-08-05T00:04:56.205Z,101372.41
2022-08-05T00:07:58.780Z,101373.50
2022-08-05T00:10:10.199Z,101369.09
2022-08-05T00:12:56.208Z,101372.09
2022-08-05T00:15:55.741Z,101372.59
2022-08-05T00:18:10.613Z,101387.50
2022-08-05T00:20:48.883Z,101390.06
2022-08-05T00:23:15.730Z,101381.47
2022-08-05T00:25:46.158Z,101396.84
2022-08-05T00:28:13.381Z,101388.28
2022-08-05T00:30:41.186Z,101386.34
2022-08-05T00:33:15.632Z,101386.16
2022-08-05T00:36:16.343Z,101391.97
2022-08-05T00:38:44.874Z,101390.81
2022-08-05T00:41:11.949Z,101386.63
2022-08-05T00:43:46.644Z,101400.44
2022-08-05T00:46:16.378Z,101396.50
2022-08-05T00:48:50.756Z,101394.34
2022-08-05T00:51:50.806Z,101390.84
2022-08-05T00:54:06.402Z,101386.94
2022-08-05T00:56:33.055Z,101379.56
2022-08-05T00:59:00.218Z,101365.16
2022-08-05T01:01:42.623Z,101369.91
2022-08-05T01:04:14.092Z,101367.75
2022-08-05T01:06:41.121Z,101353.34
2022-08-05T01:09:10.293Z,101345.38
2022-08-05T01:11:39.342Z,101344.81
2022-08-05T01:14:15.296Z,101342.97
2022-08-05T01:17:02.650Z,101333.81
2022-08-05T01:20:02.368Z,101330.75
2022-08-05T01:22:36.016Z,101320.63
2022-08-05T01:25:39.999Z,101325.31
2022-08-05T01:28:23.375Z,101317.31
2022-08-05T01:30:56.500Z,101325.94
2022-08-05T01:33:26.125Z,101328.03
2022-08-05T01:35:57.669Z,101316.28
2022-08-05T01:38:29.103Z,101320.47
2022-08-05T01:41:01.328Z,101312.63
2022-08-05T01:43:29.806Z,101306.53
2022-08-05T01:45:57.745Z,101304.28
2022-08-05T01:48:27.638Z,101278.72
2022-08-05T01:50:56.850Z,101245.34
2022-08-05T01:53:57.048Z,101238.25
2022-08-05T01:58:09.489Z,101240.75
2022-08-05T01:59:06.619Z,101242.91
2022-08-05T02:01:39.960Z,101246.72
2022-08-05T02:04:09.328Z,101246.41
2022-08-05T02:06:38.917Z,101253.09
2022-08-05T02:09:07.358Z,101256.59
2022-08-05T02:12:06.853Z,101259.38
2022-08-05T02:14:48.036Z,101217.03
2022-08-05T02:18:31.017Z,101218.41
2022-08-05T02:20:30.518Z,101174.75
2022-08-05T02:23:12.214Z,101180.06
2022-08-05T02:25:50.085Z,101172.00
2022-08-05T02:28:29.156Z,101138.41
2022-08-05T02:31:01.053Z,101132.91
2022-08-05T02:33:38.534Z,101157.13
2022-08-05T02:36:09.650Z,101189.03
2022-08-05T02:38:43.317Z,101223.78
2022-08-05T02:41:16.887Z,101248.06
2022-08-05T02:44:06.030Z,101260.41
2022-08-05T02:46:34.053Z,101265.59
2022-08-05T02:49:01.807Z,101281.91
2022-08-05T02:52:02.708Z,101293.13
2022-08-05T02:54:34.841Z,101309.38
2022-08-05T02:57:09.863Z,101319.81
2022-08-05T02:59:55.633Z,101320.34
2022-08-05T03:02:29.981Z,101325.06
2022-08-05T03:04:58.609Z,101327.75
2022-08-05T03:08:00.456Z,101320.28
2022-08-05T03:10:24.579Z,101327.66
2022-08-05T03:12:54.214Z,101338.91
2022-08-05T03:15:23.501Z,101332.50
2022-08-05T03:17:54.146Z,101334.09
2022-08-05T03:20:23.646Z,101329.38
2022-08-05T03:22:51.470Z,101325.22
2022-08-05T03:25:33.666Z,101317.47
2022-08-05T03:28:08.908Z,101316.94
2022-08-05T03:30:38.275Z,101289.34
2022-08-05T03:33:08.392Z,101283.56
2022-08-05T03:35:40.906Z,101271.13
2022-08-05T03:38:11.920Z,101260.13
2022-08-05T03:40:45.228Z,101263.91
2022-08-05T03:43:58.323Z,101275.03
2022-08-05T03:46:01.837Z,101266.31
2022-08-05T03:48:29.933Z,101257.69
2022-08-05T03:52:49.070Z,101245.16
2022-08-05T03:55:50.505Z,101242.47
2022-08-05T03:57:16.557Z,101251.47
2022-08-05T03:59:55.933Z,101265.50
2022-08-05T04:02:38.358Z,101277.34
2022-08-05T04:05:13.243Z,101281.69
2022-08-05T04:07:57.247Z,101280.09
2022-08-05T04:10:28.083Z,101298.94
2022-08-05T04:12:58.833Z,101298.84
2022-08-05T04:15:27.766Z,101302.44
2022-08-05T04:18:03.758Z,101307.72
2022-08-05T04:20:33.708Z,101305.56
2022-08-05T04:23:00.359Z,101303.38
2022-08-05T04:25:57.689Z,101297.53
2022-08-05T04:28:14.340Z,101286.81
2022-08-05T04:30:41.677Z,101290.69
2022-08-05T04:33:09.724Z,101307.72
2022-08-05T04:36:15.848Z,101318.19
2022-08-05T04:38:23.459Z,101323.69
2022-08-05T04:41:06.764Z,101331.50
2022-08-05T04:43:34.043Z,101332.09
2022-08-05T04:46:01.061Z,101323.66
2022-08-05T04:48:28.361Z,101318.69
2022-08-05T04:51:02.811Z,101319.72
2022-08-05T04:53:33.415Z,101327.84
2022-08-05T04:56:33.607Z,101340.03
2022-08-05T04:58:49.129Z,101349.84
2022-08-05T05:01:15.842Z,101357.00
2022-08-05T05:04:02.282Z,101355.22
2022-08-05T05:06:39.568Z,101347.25
2022-08-05T05:09:17.080Z,101340.19
2022-08-05T05:11:54.514Z,101351.50
2022-08-05T05:14:27.720Z,101355.56
2022-08-05T05:16:59.129Z,101364.25
2022-08-05T05:19:26.582Z,101367.25
2022-08-05T05:22:03.633Z,101373.72
2022-08-05T05:24:58.888Z,101365.50
2022-08-05T05:27:44.909Z,101360.34
2022-08-05T05:30:31.496Z,101344.78
2022-08-05T05:33:09.015Z,101334.81
2022-08-05T05:35:43.424Z,101327.22
2022-08-05T05:38:13.533Z,101318.91
2022-08-05T05:40:49.821Z,101336.06
2022-08-05T05:43:22.350Z,101343.16
2022-08-05T05:46:13.637Z,101348.78
2022-08-05T05:48:43.932Z,101372.31
2022-08-05T05:51:14.784Z,101382.41
2022-08-05T05:53:54.222Z,101374.22
2022-08-05T05:56:32.782Z,101368.41
2022-08-05T05:59:05.060Z,101372.69
2022-08-05T06:01:37.728Z,101389.72
2022-08-05T06:04:07.205Z,101374.44
2022-08-05T06:06:34.988Z,101388.94
2022-08-05T06:09:03.954Z,101391.78
2022-08-05T06:11:31.594Z,101402.97
2022-08-05T06:14:00.436Z,101405.72
2022-08-05T06:16:36.665Z,101387.25
2022-08-05T06:19:05.735Z,101379.63
2022-08-05T06:21:37.641Z,101383.31
2022-08-05T06:24:12.147Z,101376.72
2022-08-05T06:26:52.325Z,101364.28
2022-08-05T06:29:24.947Z,101363.47
2022-08-05T06:32:21.161Z,101372.84
2022-08-05T06:34:53.424Z,101376.09
2022-08-05T06:37:52.300Z,101377.81
2022-08-05T06:40:10.355Z,101374.28
2022-08-05T06:42:37.612Z,101367.38
2022-08-05T06:45:08.578Z,101379.22
2022-08-05T06:48:37.317Z,101396.66
2022-08-05T06:50:27.069Z,101407.34
2022-08-05T06:52:58.873Z,101417.91
2022-08-05T06:55:37.908Z,101409.31
2022-08-05T06:58:29.884Z,101410.69
2022-08-05T07:00:59.707Z,101402.03
2022-08-05T07:03:32.353Z,101395.44
2022-08-05T07:06:06.256Z,101393.28
2022-08-05T07:08:47.487Z,101386.91
2022-08-05T07:11:15.599Z,101386.88
2022-08-05T07:14:01.085Z,101398.47
2022-08-05T07:18:01.402Z,101398.22
2022-08-05T07:20:16.773Z,101406.25
2022-08-05T07:22:29.031Z,101408.47
2022-08-05T07:25:22.006Z,101404.84
2022-08-05T07:27:58.799Z,101397.53
2022-08-05T07:30:33.957Z,101401.50
2022-08-05T07:33:04.990Z,101407.59
2022-08-05T07:36:05.387Z,101400.72
2022-08-05T07:38:32.452Z,101412.81
2022-08-05T07:42:07.743Z,101408.38
2022-08-05T07:44:04.209Z,101407.69
2022-08-05T07:46:33.747Z,101401.06
2022-08-05T07:49:05.806Z,101393.91
2022-08-05T07:51:48.886Z,101394.72
2022-08-05T07:54:30.603Z,101395.69
2022-08-05T07:57:01.385Z,101403.13
2022-08-05T07:59:41.645Z,101407.47
2022-08-05T08:02:15.885Z,101397.94
2022-08-05T08:04:48.439Z,101396.34
2022-08-05T08:07:16.052Z,101396.84
2022-08-05T08:09:44.506Z,101395.97
2022-08-05T08:12:37.350Z,101408.47
2022-08-05T08:15:02.100Z,101395.59
2022-08-05T08:17:29.179Z,101408.69
2022-08-05T08:20:43.428Z,101408.69
2022-08-05T08:22:43.727Z,101413.66
2022-08-05T08:25:15.805Z,101398.28
2022-08-05T08:27:47.453Z,101401.06
2022-08-05T08:30:30.160Z,101415.41
2022-08-05T08:33:04.507Z,101413.81
2022-08-05T08:35:34.996Z,101413.00
2022-08-05T08:38:07.732Z,101421.25
2022-08-05T08:40:35.358Z,101423.34
2022-08-05T08:45:16.227Z,101428.88
2022-08-05T08:45:54.151Z,101425.34
2022-08-05T08:48:43.682Z,101427.47
2022-08-05T08:51:30.630Z,101415.91
2022-08-05T08:53:56.204Z,101407.69
2022-08-05T08:56:26.968Z,101412.03
2022-08-05T08:58:53.983Z,101429.13
2022-08-05T09:01:21.144Z,101433.34
2022-08-05T09:03:55.416Z,101430.78
2022-08-05T09:06:30.010Z,101428.09
2022-08-05T09:09:01.778Z,101429.13
2022-08-05T09:11:53.126Z,101440.16
2022-08-05T09:14:57.503Z,101440.44
2022-08-05T09:17:05.553Z,101453.38
2022-08-05T09:20:01.486Z,101457.34
2022-08-05T09:22:32.185Z,101449.50
2022-08-05T09:25:01.769Z,101450.38
2022-08-05T09:28:05.811Z,101451.19
2022-08-05T09:30:26.805Z,101458.38
2022-08-05T09:32:53.772Z,101461.41
2022-08-05T09:35:26.649Z,101455.59
2022-08-05T09:38:12.918Z,101465.50
2022-08-05T09:40:44.550Z,101466.84
2022-08-05T09:43:41.698Z,101448.06
2022-08-05T09:46:27.716Z,101451.72
2022-08-05T09:49:07.595Z,101448.06
2022-08-05T09:51:49.987Z,101437.75
2022-08-05T09:54:28.875Z,101446.56
2022-08-05T09:56:57.635Z,101452.03
2022-08-05T09:59:27.972Z,101463.00
2022-08-05T10:01:57.954Z,101466.00
2022-08-05T10:04:38.477Z,101465.25
2022-08-05T10:07:25.066Z,101465.22
2022-08-05T10:10:13.749Z,101447.16
2022-08-05T10:13:09.979Z,101455.50
2022-08-05T10:15:41.240Z,101462.34
2022-08-05T10:18:13.934Z,101471.81
2022-08-05T10:20:48.333Z,101479.44
2022-08-05T10:23:55.276Z,101474.00
2022-08-05T10:26:15.252Z,101463.00
2022-08-05T10:28:45.029Z,101458.09
2022-08-05T10:32:50.933Z,101453.50
2022-08-05T10:34:00.124Z,101460.22
2022-08-05T10:36:27.415Z,101470.03
2022-08-05T10:39:01.124Z,101490.47
2022-08-05T10:41:45.527Z,101489.13
2022-08-05T10:44:17.619Z,101483.97
2022-08-05T10:46:45.503Z,101496.84
2022-08-05T10:49:16.802Z,101492.19
2022-08-05T10:51:59.838Z,101488.97
2022-08-05T10:55:01.973Z,101490.41
2022-08-05T10:57:31.011Z,101484.34
2022-08-05T11:00:23.256Z,101478.50
2022-08-05T11:02:59.011Z,101500.53
2022-08-05T11:06:05.130Z,101502.59
2022-08-05T11:08:37.079Z,101503.66
2022-08-05T11:11:52.641Z,101489.81
2022-08-05T11:15:01.018Z,101493.78
2022-08-05T11:18:07.342Z,101507.88
2022-08-05T11:20:39.171Z,101521.91
2022-08-05T11:23:33.771Z,101539.31
2022-08-05T11:26:28.439Z,101553.88
2022-08-05T11:29:06.957Z,101539.00
2022-08-05T11:31:58.871Z,101519.44
2022-08-05T11:34:37.446Z,101508.63
2022-08-05T11:37:06.099Z,101511.69
2022-08-05T11:40:00.296Z,101545.91
2022-08-05T11:42:38.016Z,101553.75
2022-08-05T11:45:23.217Z,101556.06
2022-08-05T11:47:55.177Z,101560.81
2022-08-05T11:50:22.582Z,101563.88
2022-08-05T11:52:52.043Z,101553.75
2022-08-05T11:55:21.530Z,101558.50
2022-08-05T11:58:09.556Z,101561.25
2022-08-05T12:00:41.302Z,101557.72
2022-08-05T12:03:29.265Z,101567.47
2022-08-05T12:06:00.543Z,101567.75
2022-08-05T12:08:27.593Z,101569.16
2022-08-05T12:10:59.401Z,101566.06
2022-08-05T12:13:48.919Z,101575.47
2022-08-05T12:16:19.364Z,101571.84
2022-08-05T12:18:49.565Z,101571.34
2022-08-05T12:21:29.948Z,101562.34
2022-08-05T12:24:06.782Z,101570.13
2022-08-05T12:26:44.096Z,101570.75
2022-08-05T12:29:17.859Z,101565.81
2022-08-05T12:32:02.006Z,101580.78
2022-08-05T12:34:31.417Z,101571.66
2022-08-05T12:37:10.706Z,101575.28
2022-08-05T12:39:39.460Z,101578.50
2022-08-05T12:42:16.039Z,101580.25
2022-08-05T12:44:47.388Z,101572.47
2022-08-05T12:47:26.569Z,101582.28
2022-08-05T12:50:03.698Z,101583.88
2022-08-05T12:52:38.835Z,101585.31
2022-08-05T12:55:22.528Z,101589.47
2022-08-05T12:58:49.149Z,101587.81
2022-08-05T13:02:01.159Z,101578.41
2022-08-05T13:03:32.367Z,101593.03
2022-08-05T13:06:00.891Z,101598.63
2022-08-05T13:08:30.392Z,101601.66
2022-08-05T13:11:04.409Z,101598.09
2022-08-05T13:14:06.742Z,101587.38
2022-08-05T13:16:20.321Z,101593.44
2022-08-05T13:18:57.613Z,101586.28
2022-08-05T13:21:28.451Z,101594.31
2022-08-05T13:24:05.954Z,101590.94
2022-08-05T13:26:35.515Z,101596.22
2022-08-05T13:29:02.101Z,101592.06
2022-08-05T13:31:33.916Z,101596.19
2022-08-05T13:34:23.243Z,101596.22
2022-08-05T13:36:52.388Z,101592.34
2022-08-05T13:39:24.498Z,101590.66
2022-08-05T13:42:05.915Z,101595.72
2022-08-05T13:44:32.716Z,101589.09
2022-08-05T13:47:04.807Z,101583.53
2022-08-05T13:49:35.825Z,101582.63
2022-08-05T13:52:17.535Z,101576.72
2022-08-05T13:54:53.290Z,101585.56
2022-08-05T13:57:21.070Z,101586.63
2022-08-05T13:59:57.062Z,101595.25
2022-08-05T14:02:26.568Z,101579.28
2022-08-05T14:05:12.049Z,101582.06
2022-08-05T14:08:00.611Z,101588.09
2022-08-05T14:10:31.759Z,101594.44
2022-08-05T14:12:59.646Z,101591.66
2022-08-05T14:16:05.386Z,101570.22
2022-08-05T14:18:17.573Z,101568.50
2022-08-05T14:20:47.887Z,101571.00
2022-08-05T14:23:23.403Z,101562.97
2022-08-05T14:25:54.288Z,101566.88
2022-08-05T14:28:26.371Z,101563.53
2022-08-05T14:30:54.714Z,101566.22
2022-08-05T14:33:23.009Z,101574.81
2022-08-05T14:35:52.039Z,101575.22
2022-08-05T14:38:32.911Z,101581.25
2022-08-05T14:41:06.850Z,101581.44
2022-08-05T14:44:01.930Z,101576.34
2022-08-05T14:46:28.373Z,101574.47
2022-08-05T14:48:57.019Z,101579.66
2022-08-05T14:51:24.375Z,101580.56
2022-08-05T14:54:28.817Z,101588.69
2022-08-05T14:56:44.375Z,101578.28
2022-08-05T14:59:13.847Z,101569.72
2022-08-05T15:01:48.448Z,101563.75
2022-08-05T15:04:16.187Z,101590.91
2022-08-05T15:06:49.505Z,101618.88
2022-08-05T15:09:52.194Z,101626.63
2022-08-05T15:12:09.101Z,101638.50
2022-08-05T15:14:48.393Z,101641.00
2022-08-05T15:17:45.771Z,101640.50
2022-08-05T15:20:05.077Z,101638.06
2022-08-05T15:22:31.661Z,101643.88
2022-08-05T15:24:59.329Z,101643.06
2022-08-05T15:27:26.307Z,101648.03
2022-08-05T15:29:58.970Z,101646.91
2022-08-05T15:32:28.615Z,101653.84
2022-08-05T15:34:56.066Z,101661.56
2022-08-05T15:38:32.760Z,101662.13
2022-08-05T15:41:00.503Z,101662.13
2022-08-05T15:43:09.126Z,101664.63
2022-08-05T15:45:43.556Z,101660.19
2022-08-05T15:48:13.987Z,101677.31
2022-08-05T15:50:43.843Z,101673.16
2022-08-05T15:53:13.156Z,101675.09
2022-08-05T15:56:02.463Z,101679.53
2022-08-05T15:58:36.860Z,101680.13
2022-08-05T16:01:16.433Z,101681.78
2022-08-05T16:03:50.459Z,101696.44
2022-08-05T16:06:19.589Z,101688.66
2022-08-05T16:08:47.233Z,101699.97
2022-08-05T16:11:14.247Z,101698.59
2022-08-05T16:13:41.307Z,101701.31
2022-08-05T16:16:08.088Z,101699.97
2022-08-05T16:18:51.882Z,101702.38
2022-08-05T16:21:20.555Z,101706.81
2022-08-05T16:24:07.694Z,101706.78
2022-08-05T16:26:59.409Z,101712.31
2022-08-05T16:29:28.090Z,101726.47
2022-08-05T16:31:58.104Z,101729.84
2022-08-05T16:34:25.664Z,101724.81
2022-08-05T16:36:53.624Z,101727.31
2022-08-05T16:39:20.627Z,101729.47
2022-08-05T16:42:14.901Z,101735.28
2022-08-05T16:44:34.356Z,101740.63
2022-08-05T16:47:01.027Z,101736.63
2022-08-05T16:49:27.615Z,101740.53
2022-08-05T16:51:58.864Z,101746.63
2022-08-05T16:54:29.016Z,101756.34
2022-08-05T16:56:59.603Z,101757.66
2022-08-05T16:59:27.839Z,101762.31
2022-08-05T17:01:57.732Z,101765.06
2022-08-05T17:04:27.397Z,101764.66
2022-08-05T17:07:00.042Z,101759.91
2022-08-05T17:09:29.810Z,101758.41
2022-08-05T17:12:00.309Z,101758.41
2022-08-05T17:14:34.360Z,101769.44
2022-08-05T17:17:05.960Z,101764.41
2022-08-05T17:19:32.621Z,101777.41
2022-08-05T17:22:00.733Z,101766.59
2022-08-05T17:24:38.779Z,101799.41
2022-08-05T17:27:09.191Z,101770.63
2022-08-05T17:29:41.298Z,101784.50
2022-08-05T17:32:17.056Z,101787.84
2022-08-05T17:34:48.454Z,101794.88
2022-08-05T17:37:41.040Z,101801.72
2022-08-05T17:40:10.345Z,101802.31
2022-08-05T17:42:42.988Z,101809.59
2022-08-05T17:45:17.795Z,101812.28
2022-08-05T17:47:53.025Z,101815.19
2022-08-05T17:50:28.116Z,101810.94
2022-08-05T17:52:56.128Z,101829.78
2022-08-05T17:55:34.696Z,101833.38
2022-08-05T17:58:13.356Z,101831.13
2022-08-05T18:00:45.440Z,101829.50
2022-08-05T18:06:05.884Z,101843.34
2022-08-05T18:08:37.545Z,101846.47
2022-08-05T18:11:07.570Z,101845.66
2022-08-05T18:13:43.982Z,101845.66
2022-08-05T18:16:14.552Z,101863.19
2022-08-05T18:18:47.960Z,101857.31
2022-08-05T18:21:21.401Z,101862.72
2022-08-05T18:23:53.743Z,101859.13
2022-08-05T18:26:29.071Z,101868.56
2022-08-05T18:28:58.953Z,101873.09
2022-08-05T18:31:26.127Z,101870.09
2022-08-05T18:34:01.144Z,101882.59
2022-08-05T18:36:29.531Z,101874.75
2022-08-05T18:38:56.714Z,101875.56
2022-08-05T18:41:56.461Z,101880.66
2022-08-05T18:44:11.640Z,101877.88
2022-08-05T18:46:41.320Z,101886.88
2022-08-05T18:49:30.538Z,101888.56
2022-08-05T18:52:32.747Z,101881.59
2022-08-05T18:55:00.877Z,101887.91
2022-08-05T18:57:27.543Z,101886.59
2022-08-05T19:00:20.353Z,101889.34
2022-08-05T19:02:47.864Z,101899.66
2022-08-05T19:06:12.910Z,101905.03
2022-08-05T19:08:02.782Z,101899.88
2022-08-05T19:10:30.601Z,101903.59
2022-08-05T19:12:57.562Z,101904.53
2022-08-05T19:15:57.908Z,101914.06
2022-08-05T19:18:21.833Z,101919.56
2022-08-05T19:20:52.428Z,101916.47
2022-08-05T19:24:04.255Z,101923.50
2022-08-05T19:26:08.410Z,101930.78
2022-08-05T19:28:41.584Z,101930.09
2022-08-05T19:31:13.177Z,101929.13
2022-08-05T19:33:48.293Z,101942.28
2022-08-05T19:36:27.172Z,101948.38
2022-08-05T19:39:00.545Z,101948.00
2022-08-05T19:41:58.137Z,101949.00
2022-08-05T19:44:14.695Z,101956.84
2022-08-05T19:46:41.641Z,101951.59
2022-08-05T19:49:12.455Z,101961.75
2022-08-05T19:52:08.489Z,101960.19
2022-08-05T19:54:32.904Z,101964.94
2022-08-05T19:57:08.374Z,101965.19
2022-08-05T19:59:54.799Z,101970.53
2022-08-05T20:02:25.933Z,101961.81
2022-08-05T20:04:53.012Z,101975.16
2022-08-05T20:07:48.291Z,101974.44
2022-08-05T20:10:13.776Z,101978.72
2022-08-05T20:12:48.299Z,101980.88
2022-08-05T20:15:23.129Z,101983.25
2022-08-05T20:18:10.505Z,101987.75
2022-08-05T20:20:56.276Z,101995.06
2022-08-05T20:23:39.780Z,101992.31
2022-08-05T20:26:15.924Z,101995.66
2022-08-05T20:28:44.905Z,102001.22
2022-08-05T20:31:11.523Z,102001.69
2022-08-05T20:33:38.174Z,102001.31
2022-08-05T20:36:09.039Z,102006.44
2022-08-05T20:38:37.665Z,102002.47
2022-08-05T20:41:08.428Z,102010.50
2022-08-05T20:43:59.684Z,102018.91
2022-08-05T20:46:25.196Z,102016.41
2022-08-05T20:48:52.170Z,102014.16
2022-08-05T20:51:18.814Z,102010.34
2022-08-05T20:53:56.509Z,102016.66
2022-08-05T20:56:29.755Z,102026.19
2022-08-05T20:59:11.221Z,102014.84
2022-08-05T21:01:42.820Z,102024.28
2022-08-05T21:04:12.624Z,102031.31
2022-08-05T21:06:45.495Z,102032.00
2022-08-05T21:09:14.615Z,102041.13
2022-08-05T21:12:07.463Z,102043.06
2022-08-05T21:14:35.215Z,102033.38
2022-08-05T21:17:05.246Z,102035.06
2022-08-05T21:19:46.977Z,102043.28
2022-08-05T21:22:17.770Z,102039.59
2022-08-05T21:24:45.782Z,102050.44
2022-08-05T21:27:16.300Z,102061.41
2022-08-05T21:29:43.326Z,102056.78
2022-08-05T21:32:19.906Z,102055.81
2022-08-05T21:35:08.496Z,102058.66
2022-08-05T21:37:34.083Z,102051.81
2022-08-05T21:40:05.943Z,102055.84
2022-08-05T21:42:43.889Z,102055.63
2022-08-05T21:45:13.460Z,102068.22
2022-08-05T21:47:57.051Z,102070.97
2022-08-05T21:50:26.077Z,102069.28
2022-08-05T21:52:52.935Z,102066.84
2022-08-05T21:55:42.794Z,102066.53
2022-08-05T21:58:10.331Z,102068.34
2022-08-05T22:00:38.388Z,102057.50
2022-08-05T22:03:07.087Z,102065.34
2022-08-05T22:05:48.150Z,102069.38
2022-08-05T22:08:22.411Z,102060.53
2022-08-05T22:10:51.452Z,102066.78
2022-08-05T22:14:32.605Z,102072.22
2022-08-05T22:16:15.633Z,102071.59
2022-08-05T22:18:49.098Z,102074.81
2022-08-05T22:21:19.172Z,102081.69
2022-08-05T22:24:09.101Z,102079.81
2022-08-05T22:26:58.223Z,102083.56
2022-08-05T22:29:26.619Z,102084.97
2022-08-05T22:31:55.180Z,102089.38
2022-08-05T22:34:28.838Z,102083.34
2022-08-05T22:36:58.463Z,102090.91
2022-08-05T22:39:32.532Z,102087.13
2022-08-05T22:42:10.386Z,102100.00
2022-08-05T22:44:39.539Z,102096.91
2022-08-05T22:47:06.978Z,102096.72
2022-08-05T22:50:18.348Z,102094.22
2022-08-05T22:52:30.307Z,102092.81
2022-08-05T22:55:01.121Z,102091.75
2022-08-05T22:57:36.350Z,102102.25
2022-08-05T23:00:07.865Z,102101.03
2022-08-05T23:02:39.832Z,102106.25
2022-08-05T23:05:12.952Z,102098.81
2022-08-05T23:07:45.473Z,102100.34
2022-08-05T23:10:20.016Z,102097.94
2022-08-05T23:12:51.134Z,102104.75
2022-08-05T23:15:21.810Z,102103.72
2022-08-05T23:18:01.727Z,102108.09
2022-08-05T23:20:37.311Z,102117.44
2022-08-05T23:23:05.826Z,102102.66
2022-08-05T23:25:52.253Z,102110.66
2022-08-05T23:28:21.001Z,102117.81
2022-08-05T23:30:53.107Z,102122.06
2022-08-05T23:33:26.300Z,102136.19
2022-08-05T23:36:10.258Z,102121.69
2022-08-05T23:38:37.265Z,102133.94
2022-08-05T23:41:03.833Z,102134.78
2022-08-05T23:43:49.767Z,102145.94
2022-08-05T23:46:21.040Z,102143.19
2022-08-05T23:49:01.114Z,102153.72
2022-08-05T23:51:53.496Z,102152.06
2022-08-05T23:54:30.277Z,102145.59
2022-08-05T23:57:04.934Z,102153.59
